首页
METAR-TAF:

METAR-TAF

机场 :

莫比尔, 阿拉巴马州, 美国

纬度: 30-36-50N, 经度: 088-03-48W, 海拔: 7米

当前天气观测

该预报发布于1小时和20分钟前的03:53 UTC
静风
温度 27°C
湿度 74%
气压 1019 hPa
能見度: 16.1公里
天空无云

METAR: KBFM 150353Z AUTO 00000KT 10SM CLR 27/22 A3010 RMK AO2 LTG DSNT W SLP193 T02670217 $

时间: 00:13 (05:13 UTC)

预报

该预报发布于5小时和35分钟前的23:38 UTC
预报有效从15日的 00点(UTC)到 15日的 24点(UTC)
风速7节,风向
能見度: 10公里
散云层高于4000英尺, 积雨云.
多云层高于20000英尺
附近有雷暴
从 15日的 0300点(UTC)
风速3节,风向多变
能見度: 10公里
少量云层高于25000英尺
从 15日的 1900点(UTC)
风速7节,风向
能見度: 10公里
散云层高于4000英尺, 积雨云.
散云层高于25000英尺
附近有雷暴,

TAF: KBFM 142338Z 1500/1524 19007KT P6SM VCTS SCT040CB BKN200 FM150300 VRB03KT P6SM FEW250 FM151900 19007KT P6SM VCTS SCT040CB SCT250

超过4000个机场的气象观测和天气预报(METAR&TAF报告)。

可查询的气象台以黄色和红色小点在地图上表示。

将鼠标移到小点上方,可查看气象台名称。

然后点击查看天气观测和预报。

如需切换地图:点击带黑十字的绿色按钮放大地图;点击带横线的绿色按钮缩小地图;或者点击绿色箭头查看邻近地区的地图。


METAR-TAF: